sensor_id;sensor_type;location;lat;lon;timestamp;P1;durP1;ratioP1;P2;durP2;ratioP2
53775;SDS011;44276;49.534;6.378;2023-01-19T00:00:30;33.90;;;12.35;;
53775;SDS011;44276;49.534;6.378;2023-01-19T00:02:58;28.95;;;13.10;;
53775;SDS011;44276;49.534;6.378;2023-01-19T00:05:26;30.60;;;12.90;;
53775;SDS011;44276;49.534;6.378;2023-01-19T00:07:55;27.00;;;11.13;;
53775;SDS011;44276;49.534;6.378;2023-01-19T00:10:41;22.50;;;10.88;;
53775;SDS011;44276;49.534;6.378;2023-01-19T00:13:12;27.17;;;11.38;;
53775;SDS011;44276;49.534;6.378;2023-01-19T00:15:42;27.70;;;11.48;;
53775;SDS011;44276;49.534;6.378;2023-01-19T00:18:11;25.00;;;11.85;;
53775;SDS011;44276;49.534;6.378;2023-01-19T00:20:41;22.38;;;11.38;;
53775;SDS011;44276;49.534;6.378;2023-01-19T00:23:13;22.10;;;9.77;;
53775;SDS011;44276;49.534;6.378;2023-01-19T00:25:42;26.80;;;10.43;;
53775;SDS011;44276;49.534;6.378;2023-01-19T00:28:11;29.67;;;12.25;;
53775;SDS011;44276;49.534;6.378;2023-01-19T00:30:44;19.75;;;11.30;;
53775;SDS011;44276;49.534;6.378;2023-01-19T00:33:13;17.40;;;10.18;;
53775;SDS011;44276;49.534;6.378;2023-01-19T00:35:42;29.23;;;11.90;;
53775;SDS011;44276;49.534;6.378;2023-01-19T00:38:10;18.92;;;9.43;;
53775;SDS011;44276;49.534;6.378;2023-01-19T00:40:40;19.50;;;10.60;;
53775;SDS011;44276;49.534;6.378;2023-01-19T00:43:08;21.33;;;10.85;;
53775;SDS011;44276;49.534;6.378;2023-01-19T00:45:35;23.63;;;9.48;;
53775;SDS011;44276;49.534;6.378;2023-01-19T00:48:05;19.60;;;10.90;;
53775;SDS011;44276;49.534;6.378;2023-01-19T00:50:33;20.38;;;11.27;;
53775;SDS011;44276;49.534;6.378;2023-01-19T00:53:01;24.73;;;10.85;;
53775;SDS011;44276;49.534;6.378;2023-01-19T00:55:33;25.15;;;12.13;;
53775;SDS011;44276;49.534;6.378;2023-01-19T00:58:01;26.08;;;12.05;;
53775;SDS011;44276;49.534;6.378;2023-01-19T01:00:30;23.05;;;10.30;;
53775;SDS011;44276;49.534;6.378;2023-01-19T01:02:59;21.42;;;11.88;;
53775;SDS011;44276;49.534;6.378;2023-01-19T01:05:29;20.38;;;9.88;;
53775;SDS011;44276;49.534;6.378;2023-01-19T01:07:57;25.27;;;10.77;;
53775;SDS011;44276;49.534;6.378;2023-01-19T01:10:26;18.30;;;9.98;;
53775;SDS011;44276;49.534;6.378;2023-01-19T01:12:57;19.45;;;10.70;;
53775;SDS011;44276;49.534;6.378;2023-01-19T01:15:48;18.90;;;10.30;;
53775;SDS011;44276;49.534;6.378;2023-01-19T01:18:18;22.33;;;11.18;;
53775;SDS011;44276;49.534;6.378;2023-01-19T01:20:49;18.85;;;8.57;;
53775;SDS011;44276;49.534;6.378;2023-01-19T01:23:21;22.42;;;10.55;;
53775;SDS011;44276;49.534;6.378;2023-01-19T01:25:49;17.85;;;8.95;;
53775;SDS011;44276;49.534;6.378;2023-01-19T01:28:20;21.92;;;10.77;;
53775;SDS011;44276;49.534;6.378;2023-01-19T01:30:51;19.55;;;9.90;;
53775;SDS011;44276;49.534;6.378;2023-01-19T01:33:22;23.92;;;10.52;;
53775;SDS011;44276;49.534;6.378;2023-01-19T01:36:07;16.48;;;10.27;;
53775;SDS011;44276;49.534;6.378;2023-01-19T01:38:37;25.08;;;11.05;;
53775;SDS011;44276;49.534;6.378;2023-01-19T01:41:06;18.50;;;9.57;;
53775;SDS011;44276;49.534;6.378;2023-01-19T01:43:42;22.80;;;9.95;;
53775;SDS011;44276;49.534;6.378;2023-01-19T01:46:13;18.27;;;9.43;;
53775;SDS011;44276;49.534;6.378;2023-01-19T01:48:46;20.30;;;10.75;;
53775;SDS011;44276;49.534;6.378;2023-01-19T01:51:22;16.23;;;9.57;;
53775;SDS011;44276;49.534;6.378;2023-01-19T01:54:03;22.58;;;11.68;;
53775;SDS011;44276;49.534;6.378;2023-01-19T01:56:40;22.38;;;10.82;;
53775;SDS011;44276;49.534;6.378;2023-01-19T01:59:15;18.55;;;9.02;;
53775;SDS011;44276;49.534;6.378;2023-01-19T02:01:55;24.02;;;11.02;;
53775;SDS011;44276;49.534;6.378;2023-01-19T02:04:45;19.50;;;9.43;;
53775;SDS011;44276;49.534;6.378;2023-01-19T02:07:22;15.93;;;9.55;;
53775;SDS011;44276;49.534;6.378;2023-01-19T02:10:21;17.10;;;8.65;;
53775;SDS011;44276;49.534;6.378;2023-01-19T02:13:07;20.42;;;10.48;;
53775;SDS011;44276;49.534;6.378;2023-01-19T02:15:48;18.45;;;9.75;;
53775;SDS011;44276;49.534;6.378;2023-01-19T02:18:19;27.13;;;9.25;;
53775;SDS011;44276;49.534;6.378;2023-01-19T02:20:53;20.38;;;9.45;;
53775;SDS011;44276;49.534;6.378;2023-01-19T02:23:40;14.35;;;8.48;;
53775;SDS011;44276;49.534;6.378;2023-01-19T02:26:13;22.02;;;8.15;;
53775;SDS011;44276;49.534;6.378;2023-01-19T02:28:46;16.27;;;9.10;;
53775;SDS011;44276;49.534;6.378;2023-01-19T02:31:18;16.90;;;8.73;;
53775;SDS011;44276;49.534;6.378;2023-01-19T02:33:48;15.30;;;8.35;;
53775;SDS011;44276;49.534;6.378;2023-01-19T02:36:20;16.30;;;7.60;;
53775;SDS011;44276;49.534;6.378;2023-01-19T02:38:55;14.77;;;8.32;;
53775;SDS011;44276;49.534;6.378;2023-01-19T02:41:29;16.65;;;7.65;;
53775;SDS011;44276;49.534;6.378;2023-01-19T02:44:05;22.02;;;8.65;;
53775;SDS011;44276;49.534;6.378;2023-01-19T02:46:35;16.30;;;7.75;;
53775;SDS011;44276;49.534;6.378;2023-01-19T02:49:04;17.88;;;9.20;;
53775;SDS011;44276;49.534;6.378;2023-01-19T02:51:32;13.45;;;7.30;;
53775;SDS011;44276;49.534;6.378;2023-01-19T02:54:06;17.00;;;9.27;;
53775;SDS011;44276;49.534;6.378;2023-01-19T02:57:20;16.08;;;7.25;;
53775;SDS011;44276;49.534;6.378;2023-01-19T03:00:05;12.85;;;7.25;;
53775;SDS011;44276;49.534;6.378;2023-01-19T03:03:01;16.33;;;7.68;;
53775;SDS011;44276;49.534;6.378;2023-01-19T03:05:52;16.83;;;8.70;;
53775;SDS011;44276;49.534;6.378;2023-01-19T03:08:30;20.95;;;8.60;;
53775;SDS011;44276;49.534;6.378;2023-01-19T03:11:11;22.10;;;8.13;;
53775;SDS011;44276;49.534;6.378;2023-01-19T03:13:43;16.88;;;8.93;;
53775;SDS011;44276;49.534;6.378;2023-01-19T03:16:20;14.73;;;7.80;;
53775;SDS011;44276;49.534;6.378;2023-01-19T03:18:58;18.60;;;8.98;;
53775;SDS011;44276;49.534;6.378;2023-01-19T03:21:38;14.25;;;7.00;;
53775;SDS011;44276;49.534;6.378;2023-01-19T03:24:13;16.83;;;8.07;;
53775;SDS011;44276;49.534;6.378;2023-01-19T03:26:48;16.45;;;8.10;;
53775;SDS011;44276;49.534;6.378;2023-01-19T03:29:23;15.27;;;8.90;;
53775;SDS011;44276;49.534;6.378;2023-01-19T03:31:58;18.73;;;8.63;;
53775;SDS011;44276;49.534;6.378;2023-01-19T03:34:32;19.75;;;10.20;;
53775;SDS011;44276;49.534;6.378;2023-01-19T03:37:03;14.77;;;8.20;;
53775;SDS011;44276;49.534;6.378;2023-01-19T03:39:33;16.70;;;10.50;;
53775;SDS011;44276;49.534;6.378;2023-01-19T03:42:04;15.57;;;8.80;;
53775;SDS011;44276;49.534;6.378;2023-01-19T03:44:38;25.33;;;8.32;;
53775;SDS011;44276;49.534;6.378;2023-01-19T03:47:10;20.58;;;8.80;;
53775;SDS011;44276;49.534;6.378;2023-01-19T03:49:42;20.10;;;8.80;;
53775;SDS011;44276;49.534;6.378;2023-01-19T03:52:14;19.10;;;8.50;;
53775;SDS011;44276;49.534;6.378;2023-01-19T03:54:43;15.55;;;8.90;;
53775;SDS011;44276;49.534;6.378;2023-01-19T03:57:13;18.73;;;8.35;;
53775;SDS011;44276;49.534;6.378;2023-01-19T03:59:42;16.40;;;9.10;;
53775;SDS011;44276;49.534;6.378;2023-01-19T04:02:10;19.52;;;8.55;;
53775;SDS011;44276;49.534;6.378;2023-01-19T04:04:38;16.15;;;8.57;;
53775;SDS011;44276;49.534;6.378;2023-01-19T04:07:08;18.92;;;8.45;;
53775;SDS011;44276;49.534;6.378;2023-01-19T04:09:38;18.42;;;9.70;;
53775;SDS011;44276;49.534;6.378;2023-01-19T04:12:07;14.18;;;7.72;;
53775;SDS011;44276;49.534;6.378;2023-01-19T04:14:40;15.95;;;8.43;;
53775;SDS011;44276;49.534;6.378;2023-01-19T04:17:08;17.60;;;8.07;;
53775;SDS011;44276;49.534;6.378;2023-01-19T04:19:36;19.77;;;7.40;;
53775;SDS011;44276;49.534;6.378;2023-01-19T04:22:04;18.00;;;8.30;;
53775;SDS011;44276;49.534;6.378;2023-01-19T04:24:32;20.45;;;9.02;;
53775;SDS011;44276;49.534;6.378;2023-01-19T04:27:00;23.42;;;11.13;;
53775;SDS011;44276;49.534;6.378;2023-01-19T04:29:28;16.15;;;8.20;;
53775;SDS011;44276;49.534;6.378;2023-01-19T04:31:58;18.88;;;9.00;;
53775;SDS011;44276;49.534;6.378;2023-01-19T04:34:26;16.73;;;7.80;;
53775;SDS011;44276;49.534;6.378;2023-01-19T04:36:56;15.20;;;8.50;;
53775;SDS011;44276;49.534;6.378;2023-01-19T04:39:26;18.45;;;9.35;;
53775;SDS011;44276;49.534;6.378;2023-01-19T04:41:54;20.05;;;9.77;;
53775;SDS011;44276;49.534;6.378;2023-01-19T04:44:22;23.05;;;9.55;;
53775;SDS011;44276;49.534;6.378;2023-01-19T04:46:52;20.30;;;9.48;;
53775;SDS011;44276;49.534;6.378;2023-01-19T04:49:22;18.85;;;9.65;;
53775;SDS011;44276;49.534;6.378;2023-01-19T04:51:51;13.82;;;7.60;;
53775;SDS011;44276;49.534;6.378;2023-01-19T04:54:21;18.70;;;9.93;;
53775;SDS011;44276;49.534;6.378;2023-01-19T04:56:49;16.00;;;6.55;;
53775;SDS011;44276;49.534;6.378;2023-01-19T04:59:18;13.07;;;8.60;;
53775;SDS011;44276;49.534;6.378;2023-01-19T05:01:48;20.85;;;10.10;;
53775;SDS011;44276;49.534;6.378;2023-01-19T05:04:16;24.65;;;9.27;;
53775;SDS011;44276;49.534;6.378;2023-01-19T05:06:46;17.98;;;8.38;;
53775;SDS011;44276;49.534;6.378;2023-01-19T05:09:15;23.25;;;9.57;;
53775;SDS011;44276;49.534;6.378;2023-01-19T05:11:43;16.20;;;9.65;;
53775;SDS011;44276;49.534;6.378;2023-01-19T05:14:12;21.05;;;8.05;;
53775;SDS011;44276;49.534;6.378;2023-01-19T05:16:42;19.73;;;8.35;;
53775;SDS011;44276;49.534;6.378;2023-01-19T05:19:10;15.70;;;7.25;;
53775;SDS011;44276;49.534;6.378;2023-01-19T05:21:44;19.02;;;9.20;;
53775;SDS011;44276;49.534;6.378;2023-01-19T05:24:14;15.90;;;8.35;;
53775;SDS011;44276;49.534;6.378;2023-01-19T05:26:42;14.52;;;7.68;;
53775;SDS011;44276;49.534;6.378;2023-01-19T05:29:10;17.20;;;8.27;;
53775;SDS011;44276;49.534;6.378;2023-01-19T05:31:40;16.02;;;7.18;;
53775;SDS011;44276;49.534;6.378;2023-01-19T05:34:09;17.08;;;7.60;;
53775;SDS011;44276;49.534;6.378;2023-01-19T05:36:39;13.98;;;7.30;;
53775;SDS011;44276;49.534;6.378;2023-01-19T05:39:12;15.85;;;8.57;;
53775;SDS011;44276;49.534;6.378;2023-01-19T05:41:40;15.27;;;7.70;;
53775;SDS011;44276;49.534;6.378;2023-01-19T05:44:10;15.77;;;7.68;;
53775;SDS011;44276;49.534;6.378;2023-01-19T05:46:40;14.38;;;9.30;;
53775;SDS011;44276;49.534;6.378;2023-01-19T05:49:08;18.75;;;7.80;;
53775;SDS011;44276;49.534;6.378;2023-01-19T05:51:38;15.85;;;9.52;;
53775;SDS011;44276;49.534;6.378;2023-01-19T05:54:12;18.35;;;9.13;;
53775;SDS011;44276;49.534;6.378;2023-01-19T05:56:41;15.70;;;7.70;;
53775;SDS011;44276;49.534;6.378;2023-01-19T05:59:09;14.07;;;7.38;;
53775;SDS011;44276;49.534;6.378;2023-01-19T06:01:38;15.43;;;7.82;;
53775;SDS011;44276;49.534;6.378;2023-01-19T06:04:06;19.98;;;10.07;;
53775;SDS011;44276;49.534;6.378;2023-01-19T06:06:35;16.77;;;8.18;;
53775;SDS011;44276;49.534;6.378;2023-01-19T06:09:03;14.32;;;7.45;;
53775;SDS011;44276;49.534;6.378;2023-01-19T06:11:34;15.38;;;8.18;;
53775;SDS011;44276;49.534;6.378;2023-01-19T06:14:02;14.98;;;8.93;;
53775;SDS011;44276;49.534;6.378;2023-01-19T06:16:30;17.98;;;8.55;;
53775;SDS011;44276;49.534;6.378;2023-01-19T06:18:58;18.92;;;9.23;;
53775;SDS011;44276;49.534;6.378;2023-01-19T06:21:27;14.18;;;7.72;;
53775;SDS011;44276;49.534;6.378;2023-01-19T06:23:55;20.25;;;9.60;;
53775;SDS011;44276;49.534;6.378;2023-01-19T06:26:23;16.88;;;9.43;;
53775;SDS011;44276;49.534;6.378;2023-01-19T06:28:52;17.77;;;7.57;;
53775;SDS011;44276;49.534;6.378;2023-01-19T06:31:21;15.82;;;8.02;;
53775;SDS011;44276;49.534;6.378;2023-01-19T06:33:49;20.35;;;9.93;;
53775;SDS011;44276;49.534;6.378;2023-01-19T06:36:17;15.10;;;8.00;;
53775;SDS011;44276;49.534;6.378;2023-01-19T06:38:46;17.10;;;9.10;;
53775;SDS011;44276;49.534;6.378;2023-01-19T06:41:14;18.08;;;10.82;;
53775;SDS011;44276;49.534;6.378;2023-01-19T06:43:42;19.45;;;8.02;;
53775;SDS011;44276;49.534;6.378;2023-01-19T06:46:11;17.08;;;8.73;;
53775;SDS011;44276;49.534;6.378;2023-01-19T06:48:39;16.00;;;8.57;;
53775;SDS011;44276;49.534;6.378;2023-01-19T06:51:08;16.27;;;8.02;;
53775;SDS011;44276;49.534;6.378;2023-01-19T06:53:36;21.80;;;10.43;;
53775;SDS011;44276;49.534;6.378;2023-01-19T06:56:05;20.02;;;9.68;;
53775;SDS011;44276;49.534;6.378;2023-01-19T06:58:34;20.83;;;10.10;;
53775;SDS011;44276;49.534;6.378;2023-01-19T07:01:03;22.77;;;10.15;;
53775;SDS011;44276;49.534;6.378;2023-01-19T07:03:34;27.10;;;10.63;;
53775;SDS011;44276;49.534;6.378;2023-01-19T07:06:03;22.02;;;11.20;;
53775;SDS011;44276;49.534;6.378;2023-01-19T07:08:33;21.40;;;10.75;;
53775;SDS011;44276;49.534;6.378;2023-01-19T07:11:02;20.00;;;11.18;;
53775;SDS011;44276;49.534;6.378;2023-01-19T07:13:54;21.20;;;8.82;;
53775;SDS011;44276;49.534;6.378;2023-01-19T07:16:22;19.25;;;10.15;;
53775;SDS011;44276;49.534;6.378;2023-01-19T07:18:51;26.13;;;10.55;;
53775;SDS011;44276;49.534;6.378;2023-01-19T07:21:20;21.95;;;10.07;;
53775;SDS011;44276;49.534;6.378;2023-01-19T07:23:48;19.92;;;10.15;;
53775;SDS011;44276;49.534;6.378;2023-01-19T07:26:18;27.63;;;11.48;;
53775;SDS011;44276;49.534;6.378;2023-01-19T07:28:47;19.85;;;10.98;;
53775;SDS011;44276;49.534;6.378;2023-01-19T07:31:16;23.20;;;10.73;;
53775;SDS011;44276;49.534;6.378;2023-01-19T07:33:45;27.23;;;11.82;;
53775;SDS011;44276;49.534;6.378;2023-01-19T07:36:14;22.08;;;10.18;;
53775;SDS011;44276;49.534;6.378;2023-01-19T07:38:42;22.20;;;10.52;;
53775;SDS011;44276;49.534;6.378;2023-01-19T07:41:11;25.77;;;9.45;;
53775;SDS011;44276;49.534;6.378;2023-01-19T07:43:39;27.55;;;10.93;;
53775;SDS011;44276;49.534;6.378;2023-01-19T07:46:07;19.50;;;9.98;;
53775;SDS011;44276;49.534;6.378;2023-01-19T07:48:35;18.40;;;8.70;;
53775;SDS011;44276;49.534;6.378;2023-01-19T07:51:03;28.67;;;11.15;;
53775;SDS011;44276;49.534;6.378;2023-01-19T07:53:38;20.40;;;10.38;;
53775;SDS011;44276;49.534;6.378;2023-01-19T07:56:07;22.10;;;10.50;;
53775;SDS011;44276;49.534;6.378;2023-01-19T07:58:36;19.45;;;9.40;;
53775;SDS011;44276;49.534;6.378;2023-01-19T08:01:04;18.65;;;9.57;;
53775;SDS011;44276;49.534;6.378;2023-01-19T08:03:34;19.08;;;9.38;;
53775;SDS011;44276;49.534;6.378;2023-01-19T08:06:03;21.25;;;10.20;;
53775;SDS011;44276;49.534;6.378;2023-01-19T08:08:32;22.05;;;10.57;;
53775;SDS011;44276;49.534;6.378;2023-01-19T08:11:02;26.67;;;11.77;;
53775;SDS011;44276;49.534;6.378;2023-01-19T08:13:30;23.55;;;10.93;;
53775;SDS011;44276;49.534;6.378;2023-01-19T08:15:59;21.50;;;9.82;;
53775;SDS011;44276;49.534;6.378;2023-01-19T08:18:27;18.85;;;9.82;;
53775;SDS011;44276;49.534;6.378;2023-01-19T08:20:57;18.80;;;9.60;;
53775;SDS011;44276;49.534;6.378;2023-01-19T08:23:25;26.23;;;11.30;;
53775;SDS011;44276;49.534;6.378;2023-01-19T08:25:54;17.70;;;9.45;;
53775;SDS011;44276;49.534;6.378;2023-01-19T08:28:24;22.10;;;11.52;;
53775;SDS011;44276;49.534;6.378;2023-01-19T08:30:52;20.08;;;11.23;;
53775;SDS011;44276;49.534;6.378;2023-01-19T08:33:21;22.95;;;10.38;;
53775;SDS011;44276;49.534;6.378;2023-01-19T08:35:51;25.15;;;11.02;;
53775;SDS011;44276;49.534;6.378;2023-01-19T08:38:20;19.35;;;10.65;;
53775;SDS011;44276;49.534;6.378;2023-01-19T08:40:48;20.50;;;9.90;;
53775;SDS011;44276;49.534;6.378;2023-01-19T08:43:17;23.23;;;9.85;;
53775;SDS011;44276;49.534;6.378;2023-01-19T08:45:49;22.75;;;10.85;;
53775;SDS011;44276;49.534;6.378;2023-01-19T08:48:19;19.10;;;9.77;;
53775;SDS011;44276;49.534;6.378;2023-01-19T08:50:49;21.38;;;10.75;;
53775;SDS011;44276;49.534;6.378;2023-01-19T08:53:19;20.45;;;9.05;;
53775;SDS011;44276;49.534;6.378;2023-01-19T08:55:49;18.13;;;9.52;;
53775;SDS011;44276;49.534;6.378;2023-01-19T08:58:22;27.17;;;8.75;;
53775;SDS011;44276;49.534;6.378;2023-01-19T09:00:52;15.52;;;8.23;;
53775;SDS011;44276;49.534;6.378;2023-01-19T09:03:20;20.10;;;9.57;;
53775;SDS011;44276;49.534;6.378;2023-01-19T09:05:49;19.45;;;9.68;;
53775;SDS011;44276;49.534;6.378;2023-01-19T09:08:17;17.90;;;10.35;;
53775;SDS011;44276;49.534;6.378;2023-01-19T09:10:46;13.57;;;8.18;;
53775;SDS011;44276;49.534;6.378;2023-01-19T09:13:16;14.10;;;9.50;;
53775;SDS011;44276;49.534;6.378;2023-01-19T09:15:46;21.95;;;10.02;;
53775;SDS011;44276;49.534;6.378;2023-01-19T09:18:17;17.30;;;8.52;;
53775;SDS011;44276;49.534;6.378;2023-01-19T09:20:48;11.50;;;7.03;;
53775;SDS011;44276;49.534;6.378;2023-01-19T09:23:18;16.42;;;8.52;;
53775;SDS011;44276;49.534;6.378;2023-01-19T09:25:54;16.40;;;7.00;;
53775;SDS011;44276;49.534;6.378;2023-01-19T09:28:24;13.45;;;7.05;;
53775;SDS011;44276;49.534;6.378;2023-01-19T09:30:54;16.02;;;7.15;;
53775;SDS011;44276;49.534;6.378;2023-01-19T09:33:24;12.00;;;6.53;;
53775;SDS011;44276;49.534;6.378;2023-01-19T09:35:54;15.38;;;7.88;;
53775;SDS011;44276;49.534;6.378;2023-01-19T09:38:22;17.30;;;7.28;;
53775;SDS011;44276;49.534;6.378;2023-01-19T09:40:51;11.52;;;6.63;;
53775;SDS011;44276;49.534;6.378;2023-01-19T09:43:26;14.20;;;6.93;;
53775;SDS011;44276;49.534;6.378;2023-01-19T09:46:04;12.75;;;6.80;;
53775;SDS011;44276;49.534;6.378;2023-01-19T09:48:42;10.60;;;6.80;;
53775;SDS011;44276;49.534;6.378;2023-01-19T09:51:15;13.63;;;7.43;;
53775;SDS011;44276;49.534;6.378;2023-01-19T09:53:52;16.15;;;8.23;;
53775;SDS011;44276;49.534;6.378;2023-01-19T09:56:32;10.02;;;6.05;;
53775;SDS011;44276;49.534;6.378;2023-01-19T09:59:00;11.88;;;6.50;;
53775;SDS011;44276;49.534;6.378;2023-01-19T10:01:45;12.80;;;7.00;;
53775;SDS011;44276;49.534;6.378;2023-01-19T10:04:35;11.52;;;5.32;;
53775;SDS011;44276;49.534;6.378;2023-01-19T10:07:12;8.30;;;5.00;;
53775;SDS011;44276;49.534;6.378;2023-01-19T10:09:58;8.32;;;5.10;;
53775;SDS011;44276;49.534;6.378;2023-01-19T10:12:42;11.55;;;5.80;;
53775;SDS011;44276;49.534;6.378;2023-01-19T10:15:29;12.88;;;6.03;;
53775;SDS011;44276;49.534;6.378;2023-01-19T10:18:10;11.18;;;5.35;;
53775;SDS011;44276;49.534;6.378;2023-01-19T10:20:45;10.88;;;5.75;;
53775;SDS011;44276;49.534;6.378;2023-01-19T10:23:34;12.05;;;6.88;;
53775;SDS011;44276;49.534;6.378;2023-01-19T10:26:11;8.82;;;5.10;;
53775;SDS011;44276;49.534;6.378;2023-01-19T10:28:44;10.63;;;5.68;;
53775;SDS011;44276;49.534;6.378;2023-01-19T10:31:17;12.35;;;6.20;;
53775;SDS011;44276;49.534;6.378;2023-01-19T10:33:50;11.80;;;4.93;;
53775;SDS011;44276;49.534;6.378;2023-01-19T10:36:21;9.48;;;5.13;;
53775;SDS011;44276;49.534;6.378;2023-01-19T10:38:55;10.32;;;5.30;;
53775;SDS011;44276;49.534;6.378;2023-01-19T10:41:25;6.82;;;4.63;;
53775;SDS011;44276;49.534;6.378;2023-01-19T10:44:04;11.70;;;4.50;;
53775;SDS011;44276;49.534;6.378;2023-01-19T10:46:36;10.23;;;4.88;;
53775;SDS011;44276;49.534;6.378;2023-01-19T10:49:20;8.10;;;5.03;;
53775;SDS011;44276;49.534;6.378;2023-01-19T10:51:55;9.85;;;4.80;;
53775;SDS011;44276;49.534;6.378;2023-01-19T10:54:26;9.15;;;5.10;;
53775;SDS011;44276;49.534;6.378;2023-01-19T10:56:58;9.25;;;4.45;;
53775;SDS011;44276;49.534;6.378;2023-01-19T10:59:31;8.98;;;4.70;;
53775;SDS011;44276;49.534;6.378;2023-01-19T11:02:11;9.95;;;5.65;;
53775;SDS011;44276;49.534;6.378;2023-01-19T11:04:46;6.60;;;4.47;;
53775;SDS011;44276;49.534;6.378;2023-01-19T11:07:19;9.85;;;5.03;;
53775;SDS011;44276;49.534;6.378;2023-01-19T11:09:49;9.30;;;4.50;;
53775;SDS011;44276;49.534;6.378;2023-01-19T11:12:54;8.95;;;5.40;;
53775;SDS011;44276;49.534;6.378;2023-01-19T11:15:30;15.55;;;6.55;;
53775;SDS011;44276;49.534;6.378;2023-01-19T11:18:02;6.68;;;5.18;;
53775;SDS011;44276;49.534;6.378;2023-01-19T11:20:34;9.18;;;6.03;;
53775;SDS011;44276;49.534;6.378;2023-01-19T11:23:21;11.65;;;5.57;;
53775;SDS011;44276;49.534;6.378;2023-01-19T11:25:55;12.20;;;5.00;;
53775;SDS011;44276;49.534;6.378;2023-01-19T11:28:27;13.35;;;5.18;;
53775;SDS011;44276;49.534;6.378;2023-01-19T11:31:01;8.80;;;4.57;;
53775;SDS011;44276;49.534;6.378;2023-01-19T11:33:47;6.38;;;4.65;;
53775;SDS011;44276;49.534;6.378;2023-01-19T11:36:18;9.90;;;5.68;;
53775;SDS011;44276;49.534;6.378;2023-01-19T11:38:52;10.85;;;5.30;;
53775;SDS011;44276;49.534;6.378;2023-01-19T11:41:24;10.15;;;6.15;;
53775;SDS011;44276;49.534;6.378;2023-01-19T11:43:55;13.02;;;5.97;;
53775;SDS011;44276;49.534;6.378;2023-01-19T11:46:30;13.25;;;5.60;;
53775;SDS011;44276;49.534;6.378;2023-01-19T11:49:01;9.65;;;4.75;;
53775;SDS011;44276;49.534;6.378;2023-01-19T11:51:34;9.55;;;4.97;;
53775;SDS011;44276;49.534;6.378;2023-01-19T11:54:16;9.52;;;6.07;;
53775;SDS011;44276;49.534;6.378;2023-01-19T11:56:50;11.45;;;5.30;;
53775;SDS011;44276;49.534;6.378;2023-01-19T11:59:20;14.27;;;5.53;;
53775;SDS011;44276;49.534;6.378;2023-01-19T12:01:50;6.72;;;4.85;;
53775;SDS011;44276;49.534;6.378;2023-01-19T12:04:24;8.85;;;5.40;;
53775;SDS011;44276;49.534;6.378;2023-01-19T12:06:58;11.00;;;5.57;;
53775;SDS011;44276;49.534;6.378;2023-01-19T12:09:34;13.07;;;6.20;;
53775;SDS011;44276;49.534;6.378;2023-01-19T12:12:10;9.50;;;5.20;;
53775;SDS011;44276;49.534;6.378;2023-01-19T12:14:51;10.00;;;5.07;;
53775;SDS011;44276;49.534;6.378;2023-01-19T12:17:27;14.00;;;5.95;;
53775;SDS011;44276;49.534;6.378;2023-01-19T12:20:03;13.00;;;5.55;;
53775;SDS011;44276;49.534;6.378;2023-01-19T12:22:43;9.68;;;5.28;;
53775;SDS011;44276;49.534;6.378;2023-01-19T12:25:23;10.98;;;5.72;;
53775;SDS011;44276;49.534;6.378;2023-01-19T12:28:05;7.65;;;4.72;;
53775;SDS011;44276;49.534;6.378;2023-01-19T12:30:40;7.18;;;4.47;;
53775;SDS011;44276;49.534;6.378;2023-01-19T12:36:02;8.05;;;4.82;;
53775;SDS011;44276;49.534;6.378;2023-01-19T12:38:45;9.75;;;5.15;;
53775;SDS011;44276;49.534;6.378;2023-01-19T12:41:23;8.35;;;5.47;;
53775;SDS011;44276;49.534;6.378;2023-01-19T12:46:59;14.38;;;4.75;;
53775;SDS011;44276;49.534;6.378;2023-01-19T12:49:46;8.13;;;4.73;;
53775;SDS011;44276;49.534;6.378;2023-01-19T12:52:22;16.40;;;5.70;;
53775;SDS011;44276;49.534;6.378;2023-01-19T12:54:57;10.73;;;5.72;;
53775;SDS011;44276;49.534;6.378;2023-01-19T12:57:32;10.13;;;4.97;;
53775;SDS011;44276;49.534;6.378;2023-01-19T13:00:06;7.90;;;5.00;;
53775;SDS011;44276;49.534;6.378;2023-01-19T13:02:57;9.23;;;4.88;;
53775;SDS011;44276;49.534;6.378;2023-01-19T13:05:47;13.02;;;5.80;;
53775;SDS011;44276;49.534;6.378;2023-01-19T13:08:19;7.65;;;4.95;;
53775;SDS011;44276;49.534;6.378;2023-01-19T13:20:03;12.43;;;4.90;;
53775;SDS011;44276;49.534;6.378;2023-01-19T13:25:51;11.52;;;5.47;;
53775;SDS011;44276;49.534;6.378;2023-01-19T13:28:34;10.82;;;5.20;;
53775;SDS011;44276;49.534;6.378;2023-01-19T13:31:09;10.90;;;5.35;;
53775;SDS011;44276;49.534;6.378;2023-01-19T13:33:45;11.35;;;5.05;;
53775;SDS011;44276;49.534;6.378;2023-01-19T13:36:23;10.20;;;5.43;;
53775;SDS011;44276;49.534;6.378;2023-01-19T13:38:56;11.27;;;5.65;;
53775;SDS011;44276;49.534;6.378;2023-01-19T13:41:28;7.75;;;5.43;;
53775;SDS011;44276;49.534;6.378;2023-01-19T13:44:02;9.50;;;5.22;;
53775;SDS011;44276;49.534;6.378;2023-01-19T13:46:40;8.13;;;4.43;;
53775;SDS011;44276;49.534;6.378;2023-01-19T13:49:12;9.20;;;4.97;;
53775;SDS011;44276;49.534;6.378;2023-01-19T13:52:02;12.05;;;5.68;;
53775;SDS011;44276;49.534;6.378;2023-01-19T13:54:31;10.98;;;5.20;;
53775;SDS011;44276;49.534;6.378;2023-01-19T13:56:59;6.78;;;4.20;;
53775;SDS011;44276;49.534;6.378;2023-01-19T13:59:27;11.85;;;5.35;;
53775;SDS011;44276;49.534;6.378;2023-01-19T14:01:59;11.63;;;5.75;;
53775;SDS011;44276;49.534;6.378;2023-01-19T14:04:39;9.20;;;5.57;;
53775;SDS011;44276;49.534;6.378;2023-01-19T14:07:10;10.68;;;4.32;;
53775;SDS011;44276;49.534;6.378;2023-01-19T14:10:01;10.57;;;5.32;;
53775;SDS011;44276;49.534;6.378;2023-01-19T14:12:31;8.25;;;5.47;;
53775;SDS011;44276;49.534;6.378;2023-01-19T14:15:04;12.85;;;5.95;;
53775;SDS011;44276;49.534;6.378;2023-01-19T14:17:40;12.70;;;5.20;;
53775;SDS011;44276;49.534;6.378;2023-01-19T14:23:02;12.55;;;6.72;;
53775;SDS011;44276;49.534;6.378;2023-01-19T14:25:33;10.18;;;6.57;;
53775;SDS011;44276;49.534;6.378;2023-01-19T14:30:58;9.43;;;5.47;;
53775;SDS011;44276;49.534;6.378;2023-01-19T14:36:27;10.15;;;5.88;;
53775;SDS011;44276;49.534;6.378;2023-01-19T14:39:12;12.43;;;5.70;;
53775;SDS011;44276;49.534;6.378;2023-01-19T14:41:49;7.43;;;4.55;;
53775;SDS011;44276;49.534;6.378;2023-01-19T14:44:22;9.75;;;5.10;;
53775;SDS011;44276;49.534;6.378;2023-01-19T14:46:57;11.40;;;4.38;;
53775;SDS011;44276;49.534;6.378;2023-01-19T14:49:31;10.70;;;6.03;;
53775;SDS011;44276;49.534;6.378;2023-01-19T14:52:05;10.27;;;5.07;;
53775;SDS011;44276;49.534;6.378;2023-01-19T14:57:22;10.00;;;4.63;;
53775;SDS011;44276;49.534;6.378;2023-01-19T14:59:59;11.57;;;5.90;;
53775;SDS011;44276;49.534;6.378;2023-01-19T15:02:34;9.40;;;4.85;;
53775;SDS011;44276;49.534;6.378;2023-01-19T15:05:04;10.63;;;4.55;;
53775;SDS011;44276;49.534;6.378;2023-01-19T15:07:34;9.63;;;4.82;;
53775;SDS011;44276;49.534;6.378;2023-01-19T15:10:05;11.30;;;5.78;;
53775;SDS011;44276;49.534;6.378;2023-01-19T15:13:08;10.52;;;4.60;;
53775;SDS011;44276;49.534;6.378;2023-01-19T15:15:46;6.70;;;5.32;;
53775;SDS011;44276;49.534;6.378;2023-01-19T15:18:17;6.72;;;4.57;;
53775;SDS011;44276;49.534;6.378;2023-01-19T15:20:51;12.68;;;5.18;;
53775;SDS011;44276;49.534;6.378;2023-01-19T15:23:27;15.60;;;7.85;;
53775;SDS011;44276;49.534;6.378;2023-01-19T15:25:57;12.55;;;5.03;;
53775;SDS011;44276;49.534;6.378;2023-01-19T15:28:28;10.13;;;4.15;;
53775;SDS011;44276;49.534;6.378;2023-01-19T15:30:58;15.95;;;5.80;;
53775;SDS011;44276;49.534;6.378;2023-01-19T15:33:27;11.57;;;6.88;;
53775;SDS011;44276;49.534;6.378;2023-01-19T15:35:57;11.75;;;6.07;;